Résultats

12eme - Ronde pédestre. Édition 2015.

11.2 Km
04/10/2015 à 10:00:00 - CORNILLON-CONFOUX (13)
352 arrivant(e)s.





Place▲ Temps Dossard Nom Prenom Categ #Categ Sexe #Sexe Club Vit Moy Diplôme Partager
1 00:41:03 331 LE-BORGNE NICOLAS SEM 1 M 1 CEF MARATHONIEN OM 16.37
2 00:41:10 356 GRIFFON YANN SEM 2 M 2 16.32
3 00:41:42 168 AIT-AMER OMAR V1M 1 M 3 FOS OLYMPIQUE CLUB 16.12
4 00:42:30 362 LEFEVRE MATHIAS V1M 2 M 4 ACS 15.81
5 00:42:44 195 ROUSSEAU OLIVIER V2M 1 M 5 15.73
6 00:43:03 281 AOUIR CHEMCEDINE ESM 1 M 6 NWA RUN ENSUES 15.61
7 00:43:07 370 SANTIAGO JOSE V2M 2 M 7 15.59
8 00:43:18 179 DAHMANI RYAD V1M 3 M 8 AIX ATHLE PROVENCE 15.52
9 00:43:24 23 HALLOUIN DAVID SEM 3 M 9 15.48
10 00:43:26 238 MARQUANT JIMMY SEM 4 M 10 15.47
11 00:43:36 86 BOUQUILLON NICOLAS SEM 5 M 11 15.41
12 00:43:58 349 MAUMUS REMY SEM 6 M 12 15.28
13 00:44:01 143 JOURDAIN PATRICK-YVES V1M 4 M 13 FOS OLYMPIQUE CLUB 15.27
14 00:44:07 82 BOULIDAME YOUSSEF V2M 3 M 14 SLC MARTIGUES 15.23
15 00:44:25 185 LLOPIS SEBASTIEN SEM 7 M 15 15.13
16 00:44:29 199 MILLERE LAURENT V1M 5 M 16 POMPIER DE FOS SUR MER 15.11
17 00:44:45 257 ARNIAUD ERIC V1M 6 M 17 AIL ROUSSET 15.02
18 00:45:01 377 ZIETEK JEROME V1M 7 M 18 14.93
19 00:45:05 40 HANULA GHISLAIN SEM 8 M 19 LES FOULEES PELISSANNAISES 14.91
20 00:45:10 209 VALDERRAMA FABRICE V1M 8 M 20 AIL ROUSSET 14.88
21 00:45:21 236 FENIELLO ANTHONY SEM 9 M 21 TEAM PROVENCE ENDURANCE 14.82
22 00:45:27 186 DEBRUC NICOLAS JUM 1 M 22 ISTRES SPORT TRIATHLON 14.79
23 00:45:31 218 DUCRO GERARD V2M 4 M 23 ATHLETIC CLUB SALONAIS 14.76
24 00:45:36 84 MONTCOUQUIOL THOMAS SEM 10 M 24 14.74
25 00:45:40 273 LE-GAC YANN SEM 11 M 25 FOS OLYMPIQUE CLUB 14.72
26 00:45:45 70 TEYSSIER FRANCISQUE V1M 9 M 26 14.69
27 00:45:48 304 LE-GAL ALAIN V1M 10 M 27 A NOUS LA VICTOIRE 14.67
28 00:45:49 46 DUBLINEAU SYLVAIN V1M 11 M 28 SLC MARTIGUES 14.67
29 00:45:53 35 CHAPE REMI SEM 12 M 29 SLC MARTIGUES 14.65
30 00:46:27 235 CALVET SEBASTIEN SEM 13 M 30 TEAM PROVENCE ENDURANCE 14.47
31 00:46:30 175 CASTELLANI CHRISTIAN V2M 5 M 31 COURIR A SAUSSET 14.45
32 00:46:31 251 GAUBERT MARC V2M 6 M 32 SPEEDY CLUB DE PROVENCE 14.45
33 00:46:36 315 BAROUNIAN MARC V2M 7 M 33 OMCA ATHLETISME 14.42
34 00:46:43 106 BEZENCON CATHERINE SEF 1 F 1 14.38
35 00:46:45 184 TAUSSAC-ROSINOL RICHARD V1M 12 M 34 14.37
36 00:46:50 36 SOZZI JOELLE V2F 1 F 2 CHRONO LIBRE 14.35
37 00:47:05 328 CASTEUR JEAN-CLAUDE V2M 8 M 35 14.27
38 00:47:15 342 SIEGORA ALAIN V2M 9 M 36 14.22
39 00:47:21 114 ROUX FABRICE V1M 13 M 37 14.19
40 00:47:26 197 FALIP PATRICE V2M 10 M 38 JOGGING CLUB MARTIGUES 14.17
41 00:47:28 144 LEVY PIERRE V1M 14 M 39 14.16
42 00:47:30 38 ROCCELLI LORENZO V1M 15 M 40 FOS OLYMPIQUE CLUB 14.15
43 00:47:36 353 JOURDAIN CYRIL V1M 16 M 41 AIL ROUSSET 14.12
44 00:47:38 280 BARNICH PATRICE V1M 17 M 42 NWA RUN ENSUES 14.11
45 00:47:39 325 BAR PATRICK V1M 18 M 43 CE ASCOMETAL 14.10
46 00:48:03 37 BALESTRA DOMINIQUE V2M 11 M 44 13.99
47 00:48:10 400 PORTAL FABRICE V2M 12 M 45 13.95
48 00:48:18 201 BEERLINGS ELKE SEF 2 F 3 AIL ROUSSET 13.91
49 00:48:28 310 ADOLPHE GREGORY SEM 14 M 46 13.87
50 00:48:32 385 OLIVE CYRIL V1M 19 M 47 13.85
51 00:48:36 379 SANTIAGO ISIDORE V2M 13 M 48 13.83
52 00:48:42 215 BULTEL FRANCOIS V1M 20 M 49 13.80
53 00:48:49 351 MARQUIS ROMAIN V1M 21 M 50 13.77
54 00:48:52 45 NAVARRO FABIEN SEM 15 M 51 13.75
55 00:48:55 191 BENEDETTO GUY V2M 14 M 52 KM 42.195 MARSEILLE 13.74
56 00:48:58 252 HUMBRECHT THOMAS ESM 2 M 53 13.72
57 00:49:00 90 ZULESI JEAN-MARC SEM 16 M 54 WWW.VIVREETCOMPRENDRE.FR 13.71
58 00:49:03 228 TRAN MICHEL V1M 22 M 55 13.70
59 00:49:07 282 AMBROSINO FRANCK SEM 17 M 56 13.68
60 00:49:11 99 GEPPIER CECILIA V1F 1 F 4 CHRONO LIBRE 13.66
61 00:49:16 183 GARCIN FREDERIC V1M 23 M 57 13.64
62 00:49:17 293 HAMET JULIEN SEM 18 M 58 ASP MARTIGUES 13.64
63 00:49:19 126 POUSSIBET ERIC SEM 19 M 59 TEAM PROVENCE ENDURANCE 13.63
64 00:49:24 206 ROUMESTAN EDITH V2F 2 F 5 13.60
65 00:49:32 146 GUERIN JEAN-NOEL SEM 20 M 60 FOS OLYMPIQUE CLUB 13.57
66 00:49:47 219 NAVARRO ROBERT V3M 1 M 61 13.50
67 00:49:57 297 DALLE CHRISTELLE SEF 3 F 6 13.45
68 00:49:58 157 PADILLA PATRICK V1M 24 M 62 LYONELL SPORT LOISIR 13.45
69 00:50:00 347 GUSTAVAIN JEAN-PIERRE V1M 25 M 63 13.44
70 00:50:03 314 GALLIGANI SEBASTIEN V1M 26 M 64 13.43
71 00:50:10 177 CONTE-LAMUDE GEORGES V3M 2 M 65 SLC MARTIGUES 13.40
72 00:50:18 378 BARBIER DANIEL SEM 21 M 66 13.36
73 00:50:19 404 LULAND FLORIAN SEM 22 M 67 13.36
74 00:50:24 253 GILLET PATRICK V3M 3 M 68 OMCA ATHLETISME 13.33
75 00:50:25 318 JOLY NICOLAS SEM 23 M 69 13.33
76 00:50:26 340 WENDEL STEEVE JUM 2 M 70 13.32
77 00:50:31 244 BORG PHILIPPE V2M 15 M 71 MPT ISTRES 13.30
78 00:50:33 158 BEDENE OLIVIER V1M 27 M 72 13.29
79 00:50:37 296 BETETA RICHARD V3M 4 M 73 SLC MARTIGUES 13.28
80 00:50:41 79 MANONVILLER ERIC V1M 28 M 74 13.26
81 00:50:43 338 PIALAT CEDRIC SEM 24 M 75 13.25
82 00:50:45 288 INCONNU V1M 29 M 76 13.24
83 00:50:47 198 BLAISE NICOLAS V1M 30 M 77 CHRONO LIBRE 13.23
84 00:50:48 125 THURIES BERNARD V2M 16 M 78 OVS CASTILLON 13.23
85 00:50:49 355 CHIESA PATRICE V2M 17 M 79 13.22
86 00:50:50 258 GUIBOUT ERIC V1M 31 M 80 MARIGNANE TRIATHLON 13.22
87 00:50:52 115 CANO NICOLAS SEM 25 M 81 13.21
88 00:50:55 265 DESIDERI LOIC SEM 26 M 82 13.20
89 00:50:56 269 CONOTTE GEORGES V3M 5 M 83 13.19
90 00:50:58 339 GOYET ISABELLE V1F 2 F 7 13.19
91 00:51:02 33 GRUAIS CEDRIC SEM 27 M 84 13.17
92 00:51:05 30 GUYOT CHRISTOPHE V1M 32 M 85 CLES GARDANNE 13.15
93 00:51:08 77 BOUQUET BLANDINE SEF 4 F 8 VITROLLES SPORT ATHLETISME 13.14
94 00:51:14 359 RICO HERVE V1M 33 M 86 SANOFI-AVENTIS 13.12
95 00:51:18 59 PEREZ SYLVAIN V1M 34 M 87 13.10
96 00:51:20 207 VILLAESCUSA FRANCOIS SEM 28 M 88 COURIR A SAUSSET 13.09
97 00:51:31 272 BENOIT ANTOINE ESM 3 M 89 13.04
98 00:51:33 309 MIRAUCOURT OLIVIER SEM 29 M 90 13.04
99 00:51:37 326 CABRERA MAELYS SEF 5 F 9 13.02
100 00:51:41 163 PIAT MAXENCE SEM 30 M 91 13.00